Time;durP1;ratioP1;P1;durP2;ratioP2;P2;SDS_P1;SDS_P2;PMS_P1;PMS_P2;Temp;Humidity;BMP_temperature;BMP_pressure;BME280_temperature;BME280_humidity;BME280_pressure;Samples;Min_cycle;Max_cycle;Signal;HPM_P1;HPM_P2
2022/12/11 00:01:17;;;;;;;;;;;;;;;-0.31;100.00;101128.41;5083584;28;19923;-62
2022/12/11 00:03:42;;;;;;;;;;;;;;;-0.31;100.00;101129.25;5089044;28;20306;-62
2022/12/11 00:06:09;;;;;;;;;;;;;;;-0.31;100.00;101128.41;5089322;28;20010;-62
2022/12/11 00:08:35;;;;;;;;;;;;;;;-0.31;100.00;101121.41;5077042;28;20060;-62
2022/12/11 00:11:00;;;;;;;;;;;;;;;-0.29;100.00;101121.31;5083035;28;20007;-62
2022/12/11 00:13:25;;;;;;;;;;;;;;;-0.28;100.00;101116.97;5086747;28;19915;-62
2022/12/11 00:15:50;;;;;;;;;;;;;;;-0.29;100.00;101116.09;5085563;28;20372;-62
2022/12/11 00:18:15;;;;;;;;;;;;;;;-0.28;100.00;101114.38;5081531;28;19969;-63
2022/12/11 00:20:41;;;;;;;;;;;;;;;-0.25;100.00;101115.00;5077718;28;20021;-62
2022/12/11 00:23:06;;;;;;;;;;;;;;;-0.24;100.00;101121.91;5080214;28;20412;-63
2022/12/11 00:25:31;;;;;;;;;;;;;;;-0.24;100.00;101114.06;5084672;28;19923;-62
2022/12/11 00:27:56;;;;;;;;;;;;;;;-0.23;100.00;101114.91;5082029;28;20289;-62
2022/12/11 00:30:21;;;;;;;;;;;;;;;-0.23;100.00;101120.13;5079960;28;19924;-62
2022/12/11 00:32:46;;;;;;;;;;;;;;;-0.23;100.00;101114.91;5085326;28;19938;-63
2022/12/11 00:35:12;;;;;;;;;;;;;;;-0.24;100.00;101118.47;5083150;28;19920;-62
2022/12/11 00:37:37;;;;;;;;;;;;;;;-0.22;100.00;101119.19;5084070;28;19916;-63
2022/12/11 00:40:02;;;;;;;;;;;;;;;-0.21;100.00;101119.09;5083696;28;20017;-62
2022/12/11 00:42:27;;;;;;;;;;;;;;;-0.21;100.00;101121.72;5082439;28;20500;-62
2022/12/11 00:44:54;;;;;;;;;;;;;;;-0.20;100.00;101119.94;5083877;28;20532;-62
2022/12/11 00:47:20;;;;;;;;;;;;;;;-0.21;100.00;101116.50;5084354;28;19922;-63
2022/12/11 00:49:45;;;;;;;;;;;;;;;-0.19;100.00;101112.03;5084305;28;19920;-63
2022/12/11 00:52:10;;;;;;;;;;;;;;;-0.18;100.00;101112.84;5084085;28;19938;-63
2022/12/11 00:54:35;;;;;;;;;;;;;;;-0.17;100.00;101114.53;5079415;28;19920;-63
2022/12/11 00:57:00;;;;;;;;;;;;;;;-0.18;100.00;101112.84;5085069;28;20492;-63
2022/12/11 00:59:26;;;;;;;;;;;;;;;-0.17;100.00;101114.53;5085126;28;20183;-62
2022/12/11 01:01:52;;;;;;;;;;;;;;;-0.17;100.00;101117.13;5084287;28;19927;-61
2022/12/11 01:04:17;;;;;;;;;;;;;;;-0.18;100.00;101107.63;5086004;28;19916;-63
2022/12/11 01:06:42;;;;;;;;;;;;;;;-0.17;100.00;101112.75;5086129;28;19965;-62
2022/12/11 01:11:51;;;;;;;;;;;;;;;-0.15;100.00;101115.28;5081609;28;20055;-62
2022/12/11 01:14:16;;;;;;;;;;;;;;;-0.15;100.00;101110.88;5078872;28;20010;-62
2022/12/11 01:16:41;;;;;;;;;;;;;;;-0.15;100.00;101102.22;5085320;28;19935;-62
2022/12/11 01:19:06;;;;;;;;;;;;;;;-0.13;100.00;101110.78;5081110;28;19999;-63
2022/12/11 01:21:32;;;;;;;;;;;;;;;-0.13;100.00;101106.41;5082353;28;20302;-62
2022/12/11 01:23:57;;;;;;;;;;;;;;;-0.13;100.00;101111.63;5079726;28;19916;-63
2022/12/11 01:26:22;;;;;;;;;;;;;;;-0.12;100.00;101113.31;5081890;28;19920;-62
2022/12/11 01:28:48;;;;;;;;;;;;;;;-0.11;100.00;101119.38;5080429;28;19959;-63
2022/12/11 01:31:15;;;;;;;;;;;;;;;-0.10;100.00;101115.81;5078206;28;19920;-62
2022/12/11 01:33:40;;;;;;;;;;;;;;;-0.11;100.00;101117.59;5078142;28;19989;-61
2022/12/11 01:36:10;;;;;;;;;;;;;;;-0.10;100.00;101115.81;5080976;28;19959;-62
2022/12/11 01:38:35;;;;;;;;;;;;;;;-0.09;100.00;101114.88;5080977;28;19924;-62
2022/12/11 01:41:00;;;;;;;;;;;;;;;-0.09;100.00;101112.28;5079244;28;20050;-62
2022/12/11 01:43:25;;;;;;;;;;;;;;;-0.07;100.00;101110.41;5081428;28;19927;-62
2022/12/11 01:45:51;;;;;;;;;;;;;;;-0.07;100.00;101108.63;5081566;28;20410;-62
2022/12/11 01:48:24;;;;;;;;;;;;;;;-0.05;100.00;101113.75;5077860;28;20380;-62
2022/12/11 01:50:51;;;;;;;;;;;;;;;-0.03;100.00;101111.88;5079843;28;19920;-62
2022/12/11 01:53:19;;;;;;;;;;;;;;;-0.03;100.00;101099.66;5079755;28;20513;-61
2022/12/11 01:55:45;;;;;;;;;;;;;;;-0.02;100.00;101103.94;5081488;28;19916;-62
2022/12/11 01:58:11;;;;;;;;;;;;;;;0.02;100.00;101103.78;5082206;28;20057;-62
2022/12/11 02:00:36;;;;;;;;;;;;;;;0.05;100.00;101101.81;5079271;28;20034;-62
2022/12/11 02:03:01;;;;;;;;;;;;;;;0.09;100.00;101105.91;5076762;28;20027;-62
2022/12/11 02:05:26;;;;;;;;;;;;;;;0.13;100.00;101102.16;5080660;28;19916;-62
2022/12/11 02:07:55;;;;;;;;;;;;;;;0.13;100.00;101102.16;5083375;28;19974;-62
2022/12/11 02:10:23;;;;;;;;;;;;;;;0.14;100.00;101097.78;5076394;28;20005;-61
2022/12/11 02:13:05;;;;;;;;;;;;;;;0.15;100.00;101095.06;5083885;28;20069;-62
2022/12/11 02:15:44;;;;;;;;;;;;;;;0.16;100.00;101093.31;5085800;28;20968;-62
2022/12/11 02:18:12;;;;;;;;;;;;;;;0.15;100.00;101089.84;5088853;28;20455;-62
2022/12/11 02:20:43;;;;;;;;;;;;;;;0.18;100.00;101086.19;5087971;28;20018;-62
2022/12/11 02:23:19;;;;;;;;;;;;;;;0.18;100.00;101094.03;5089409;28;20505;-62
2022/12/11 02:26:05;;;;;;;;;;;;;;;0.15;100.00;101095.06;5087812;28;19916;-63
2022/12/11 02:28:33;;;;;;;;;;;;;;;0.14;100.00;101093.41;5088609;28;19920;-62
2022/12/11 02:31:17;;;;;;;;;;;;;;;0.13;100.00;101094.34;5084593;28;19924;-62
2022/12/11 02:33:47;;;;;;;;;;;;;;;0.13;100.00;101089.09;5088486;28;19924;-61
2022/12/11 02:36:14;;;;;;;;;;;;;;;0.13;100.00;101081.28;5088804;28;19924;-62
2022/12/11 02:38:42;;;;;;;;;;;;;;;0.14;100.00;101092.56;5087336;28;19922;-62
2022/12/11 02:41:09;;;;;;;;;;;;;;;0.12;100.00;101087.44;5086495;28;19916;-62
2022/12/11 02:43:35;;;;;;;;;;;;;;;0.12;100.00;101089.22;5089373;28;20007;-62
2022/12/11 02:46:03;;;;;;;;;;;;;;;0.11;100.00;101082.31;5086994;28;20299;-63
2022/12/11 02:48:29;;;;;;;;;;;;;;;0.12;100.00;101084.00;5092886;28;19916;-61
2022/12/11 02:50:56;;;;;;;;;;;;;;;0.09;100.00;101082.41;5089112;27;20559;-62
2022/12/11 02:53:23;;;;;;;;;;;;;;;0.10;100.00;101075.41;5086161;28;19916;-64
2022/12/11 02:55:50;;;;;;;;;;;;;;;0.09;100.00;101082.41;5090956;28;20425;-61
2022/12/11 02:58:17;;;;;;;;;;;;;;;0.09;100.00;101079.81;5087084;28;19928;-62
2022/12/11 03:00:43;;;;;;;;;;;;;;;0.10;100.00;101070.19;5086437;28;19959;-62
2022/12/11 03:03:09;;;;;;;;;;;;;;;0.10;100.00;101073.63;5083828;28;19928;-62
2022/12/11 03:05:34;;;;;;;;;;;;;;;0.10;100.00;101071.03;5090614;28;20401;-62
2022/12/11 03:08:00;;;;;;;;;;;;;;;0.10;100.00;101065.81;5086307;28;20533;-62
2022/12/11 03:10:25;;;;;;;;;;;;;;;0.12;100.00;101073.53;5087128;28;19970;-61
2022/12/11 03:12:52;;;;;;;;;;;;;;;0.12;100.00;101063.94;5085971;28;20356;-63
2022/12/11 03:15:19;;;;;;;;;;;;;;;0.12;100.00;101066.53;5087927;28;20391;-62
2022/12/11 03:17:47;;;;;;;;;;;;;;;0.13;100.00;101065.59;5087990;28;19947;-63
2022/12/11 03:20:21;;;;;;;;;;;;;;;0.12;100.00;101063.94;5086832;28;19955;-63
2022/12/11 03:22:52;;;;;;;;;;;;;;;0.15;100.00;101058.50;5085746;28;19935;-62
2022/12/11 03:25:22;;;;;;;;;;;;;;;0.16;100.00;101059.34;5084985;28;19969;-62
2022/12/11 03:27:53;;;;;;;;;;;;;;;0.16;100.00;101056.75;5085997;28;19931;-62
2022/12/11 03:30:22;;;;;;;;;;;;;;;0.15;100.00;101053.28;5080875;28;20026;-61
2022/12/11 03:32:47;;;;;;;;;;;;;;;0.14;100.00;101051.63;5083190;28;19916;-62
2022/12/11 03:35:26;;;;;;;;;;;;;;;0.16;100.00;101064.56;5084123;28;20479;-61
2022/12/11 03:37:53;;;;;;;;;;;;;;;0.16;100.00;101070.63;5080157;28;19917;-62
2022/12/11 03:40:19;;;;;;;;;;;;;;;0.16;100.00;101064.56;5086548;28;20368;-61
2022/12/11 03:42:47;;;;;;;;;;;;;;;0.14;100.00;101056.84;5082488;28;19927;-62
2022/12/11 03:45:13;;;;;;;;;;;;;;;0.13;100.00;101068.22;5085196;28;19916;-61
2022/12/11 03:47:40;;;;;;;;;;;;;;;0.13;100.00;101060.38;5082701;28;19920;-61
2022/12/11 03:50:07;;;;;;;;;;;;;;;0.09;100.00;101053.69;5081685;28;19931;-61
2022/12/11 03:52:33;;;;;;;;;;;;;;;0.10;100.00;101050.13;5083844;28;19920;-62
2022/12/11 03:55:00;;;;;;;;;;;;;;;0.10;100.00;101060.59;5081643;28;20272;-62
2022/12/11 03:57:28;;;;;;;;;;;;;;;0.11;100.00;101050.97;5084169;28;19931;-61
2022/12/11 03:59:53;;;;;;;;;;;;;;;0.08;100.00;101051.19;5079814;28;19916;-62
2022/12/11 04:02:18;;;;;;;;;;;;;;;0.06;100.00;101053.88;5080761;28;19994;-62
2022/12/11 04:04:43;;;;;;;;;;;;;;;0.07;100.00;101047.72;5082552;28;19969;-64
2022/12/11 04:07:08;;;;;;;;;;;;;;;0.06;100.00;101042.59;5081565;28;19927;-62
2022/12/11 04:09:34;;;;;;;;;;;;;;;-0.01;100.00;101035.16;5083258;28;20357;-61
2022/12/11 04:11:59;;;;;;;;;;;;;;;0.05;100.00;101041.78;5083246;28;19919;-61
2022/12/11 04:17:08;;;;;;;;;;;;;;;0.04;100.00;101049.72;5085719;28;19922;-63
2022/12/11 04:25:02;;;;;;;;;;;;;;;0.01;100.00;101048.13;5080198;28;19991;-62
2022/12/11 04:30:18;;;;;;;;;;;;;;;0.01;100.00;101045.53;5082540;28;19942;-62
2022/12/11 04:32:44;;;;;;;;;;;;;;;0.02;100.00;101046.34;5086338;28;20015;-63
2022/12/11 04:35:09;;;;;;;;;;;;;;;-0.01;100.00;101045.59;5083710;28;20002;-61
2022/12/11 04:37:35;;;;;;;;;;;;;;;-0.01;100.00;101040.38;5083777;28;20341;-61
2022/12/11 04:40:00;;;;;;;;;;;;;;;-0.01;100.00;101047.34;5084801;28;19916;-63
2022/12/11 04:42:25;;;;;;;;;;;;;;;-0.01;100.00;101042.13;5086761;28;19920;-61
2022/12/11 04:44:51;;;;;;;;;;;;;;;-0.03;100.00;101038.78;5087075;28;19961;-63
2022/12/11 04:47:16;;;;;;;;;;;;;;;-0.02;100.00;101040.47;5084411;28;19969;-62
2022/12/11 04:49:41;;;;;;;;;;;;;;;0.01;100.00;101039.47;5082360;28;19928;-62
2022/12/11 04:52:06;;;;;;;;;;;;;;;0.02;100.00;101036.75;5084204;28;20517;-61
2022/12/11 04:54:31;;;;;;;;;;;;;;;0.00;100.00;101030.78;5080897;28;19926;-62
2022/12/11 04:56:57;;;;;;;;;;;;;;;0.01;100.00;101036.84;5084869;28;20014;-61
2022/12/11 04:59:22;;;;;;;;;;;;;;;0.01;100.00;101034.25;5084757;28;19928;-62
2022/12/11 05:01:47;;;;;;;;;;;;;;;0.00;100.00;101038.63;5079284;28;19916;-62
2022/12/11 05:04:12;;;;;;;;;;;;;;;0.01;100.00;101035.06;5082094;28;20307;-61
2022/12/11 05:06:38;;;;;;;;;;;;;;;0.02;100.00;101041.97;5084644;28;19968;-61
2022/12/11 05:09:03;;;;;;;;;;;;;;;0.01;100.00;101037.69;5086063;28;20552;-61
2022/12/11 05:11:28;;;;;;;;;;;;;;;0.03;100.00;101038.44;5080698;28;19968;-61
2022/12/11 05:13:53;;;;;;;;;;;;;;;0.04;100.00;101032.25;5082763;28;19916;-61
2022/12/11 05:16:18;;;;;;;;;;;;;;;0.04;100.00;101034.88;5078926;28;20041;-61
2022/12/11 05:18:43;;;;;;;;;;;;;;;0.05;100.00;101040.94;5081790;28;20036;-64
2022/12/11 05:21:11;;;;;;;;;;;;;;;0.06;100.00;101026.94;5083670;28;19916;-62
2022/12/11 05:23:36;;;;;;;;;;;;;;;0.05;100.00;101033.94;5080103;28;19970;-62
2022/12/11 05:26:06;;;;;;;;;;;;;;;0.06;100.00;101033.00;5084858;28;20029;-61
2022/12/11 05:28:32;;;;;;;;;;;;;;;0.08;100.00;101032.91;5081776;28;19924;-62
2022/12/11 05:30:59;;;;;;;;;;;;;;;0.07;100.00;101028.63;5081265;28;19927;-62
2022/12/11 05:33:24;;;;;;;;;;;;;;;0.06;100.00;101026.94;5078317;28;19923;-63
2022/12/11 05:35:49;;;;;;;;;;;;;;;0.03;100.00;101022.75;5082674;28;20285;-61
2022/12/11 05:38:15;;;;;;;;;;;;;;;0.04;100.00;101018.38;5084506;28;19943;-61
2022/12/11 05:40:40;;;;;;;;;;;;;;;0.03;100.00;101021.94;5085232;28;19966;-61
2022/12/11 05:43:05;;;;;;;;;;;;;;;0.02;100.00;101015.03;5081995;28;20319;-62
2022/12/11 05:45:30;;;;;;;;;;;;;;;0.01;100.00;101016.81;5083531;28;19916;-62
2022/12/11 05:47:55;;;;;;;;;;;;;;;0.00;100.00;101020.34;5081860;28;19997;-62
2022/12/11 05:50:21;;;;;;;;;;;;;;;0.01;100.00;101016.81;5079949;28;19924;-61
2022/12/11 05:52:46;;;;;;;;;;;;;;;0.00;100.00;101015.13;5083799;28;19972;-61
2022/12/11 05:55:12;;;;;;;;;;;;;;;0.02;100.00;101021.09;5077160;28;20287;-62
2022/12/11 05:57:37;;;;;;;;;;;;;;;-0.01;100.00;101016.88;5079690;28;20416;-62
2022/12/11 06:00:03;;;;;;;;;;;;;;;0.02;100.00;101028.09;5080688;28;19924;-61
2022/12/11 06:02:28;;;;;;;;;;;;;;;0.02;100.00;101033.31;5080101;28;20349;-62
2022/12/11 06:04:54;;;;;;;;;;;;;;;0.02;100.00;101031.53;5084313;28;20463;-61
2022/12/11 06:07:19;;;;;;;;;;;;;;;0.00;100.00;101036.00;5084046;28;19920;-62
2022/12/11 06:09:44;;;;;;;;;;;;;;;-0.01;100.00;101037.75;5082966;28;19931;-63
2022/12/11 06:12:09;;;;;;;;;;;;;;;0.01;100.00;101034.25;5077008;28;20399;-62
2022/12/11 06:14:34;;;;;;;;;;;;;;;0.03;100.00;101043.66;5079631;28;19920;-63
2022/12/11 06:17:00;;;;;;;;;;;;;;;0.03;100.00;101032.38;5077687;28;19916;-63
2022/12/11 06:19:25;;;;;;;;;;;;;;;0.04;100.00;101028.81;5082776;28;20007;-63
2022/12/11 06:21:50;;;;;;;;;;;;;;;0.05;100.00;101038.31;5083945;28;20030;-62
2022/12/11 06:24:16;;;;;;;;;;;;;;;0.05;100.00;101027.88;5079614;28;20284;-62
2022/12/11 06:26:41;;;;;;;;;;;;;;;0.06;100.00;101027.78;5079595;28;20454;-61
2022/12/11 06:29:06;;;;;;;;;;;;;;;0.07;100.00;101023.41;5087493;28;19919;-61
2022/12/11 06:31:31;;;;;;;;;;;;;;;0.07;100.00;101024.22;5088636;28;19922;-61
2022/12/11 06:33:57;;;;;;;;;;;;;;;0.08;100.00;101025.06;5086825;28;19919;-62
2022/12/11 06:36:23;;;;;;;;;;;;;;;0.09;100.00;101022.34;5088613;28;20414;-62
2022/12/11 06:38:48;;;;;;;;;;;;;;;0.11;100.00;101025.72;5083274;28;20296;-62
2022/12/11 06:41:13;;;;;;;;;;;;;;;0.13;100.00;101023.84;5078707;28;19923;-61
2022/12/11 06:43:39;;;;;;;;;;;;;;;0.15;100.00;101024.56;5084722;28;20384;-61
2022/12/11 06:46:09;;;;;;;;;;;;;;;0.17;100.00;101017.47;5070149;28;20411;-63
2022/12/11 06:48:34;;;;;;;;;;;;;;;0.19;100.00;101020.81;5074619;28;19920;-62
2022/12/11 06:51:03;;;;;;;;;;;;;;;0.20;100.00;101022.50;5084141;28;20411;-61
2022/12/11 06:53:28;;;;;;;;;;;;;;;0.21;100.00;101031.16;5080927;28;20024;-62
2022/12/11 06:55:54;;;;;;;;;;;;;;;0.20;100.00;101025.09;5081613;28;20031;-62
2022/12/11 06:58:19;;;;;;;;;;;;;;;0.21;100.00;101021.56;5081544;28;19916;-61
2022/12/11 07:00:44;;;;;;;;;;;;;;;0.21;100.00;101010.28;5081787;28;19923;-62
2022/12/11 07:03:10;;;;;;;;;;;;;;;0.20;100.00;101014.66;5086502;28;19920;-62
2022/12/11 07:05:35;;;;;;;;;;;;;;;0.20;100.00;101014.66;5093881;28;19934;-62
2022/12/11 07:08:00;;;;;;;;;;;;;;;0.21;100.00;101018.94;5091702;28;19999;-62
2022/12/11 07:10:25;;;;;;;;;;;;;;;0.21;100.00;101020.72;5091862;28;19997;-61
2022/12/11 07:12:51;;;;;;;;;;;;;;;0.22;100.00;101015.38;5090496;28;20383;-62
2022/12/11 07:15:16;;;;;;;;;;;;;;;0.24;100.00;101025.72;5087598;28;20307;-61
2022/12/11 07:17:42;;;;;;;;;;;;;;;0.24;100.00;101021.34;5082809;28;20023;-62
2022/12/11 07:20:08;;;;;;;;;;;;;;;0.24;100.00;101020.50;5087093;28;20441;-62
2022/12/11 07:22:33;;;;;;;;;;;;;;;0.24;100.00;101031.78;5091855;28;19922;-62
2022/12/11 07:24:58;;;;;;;;;;;;;;;0.25;100.00;101033.47;5086442;28;20002;-61
2022/12/11 07:27:23;;;;;;;;;;;;;;;0.25;100.00;101038.69;5087893;28;20049;-62
2022/12/11 07:29:49;;;;;;;;;;;;;;;0.26;100.00;101036.91;5090178;28;19920;-61
2022/12/11 07:32:14;;;;;;;;;;;;;;;0.23;100.00;101040.56;5091456;28;19957;-63
2022/12/11 07:34:40;;;;;;;;;;;;;;;0.24;100.00;101044.03;5089285;28;20413;-62
2022/12/11 07:37:05;;;;;;;;;;;;;;;0.24;100.00;101044.84;5091929;28;19916;-61
2022/12/11 07:39:30;;;;;;;;;;;;;;;0.26;100.00;101042.13;5086103;28;19951;-62
2022/12/11 07:41:55;;;;;;;;;;;;;;;0.27;100.00;101046.44;5089090;28;20454;-61
2022/12/11 07:44:21;;;;;;;;;;;;;;;0.27;100.00;101044.66;5089789;28;19912;-61
2022/12/11 07:46:46;;;;;;;;;;;;;;;0.29;100.00;101044.59;5093982;28;19962;-61
2022/12/11 07:49:11;;;;;;;;;;;;;;;0.34;100.00;101046.88;5087500;28;20279;-62
2022/12/11 07:51:37;;;;;;;;;;;;;;;0.34;100.00;101036.44;5101840;28;19961;-62
2022/12/11 07:54:15;;;;;;;;;;;;;;;0.38;100.00;101038.75;5096504;28;19912;-62
2022/12/11 07:56:40;;;;;;;;;;;;;;;0.39;100.00;101034.38;5085635;28;20291;-61
2022/12/11 07:59:05;;;;;;;;;;;;;;;0.43;100.00;101041.06;5085810;28;19916;-62
2022/12/11 08:01:36;;;;;;;;;;;;;;;0.49;100.00;101040.66;5089419;28;20589;-61
2022/12/11 08:04:03;;;;;;;;;;;;;;;0.52;100.00;101040.44;5098488;28;19920;-62
2022/12/11 08:06:29;;;;;;;;;;;;;;;0.53;100.00;101037.72;5090904;28;19916;-61
2022/12/11 08:08:55;;;;;;;;;;;;;;;0.55;100.00;101042.84;5090070;28;19913;-63
2022/12/11 08:11:20;;;;;;;;;;;;;;;0.57;100.00;101043.59;5093042;28;20286;-63
2022/12/11 08:13:45;;;;;;;;;;;;;;;0.58;100.00;101045.28;5089690;28;19962;-61
2022/12/11 08:16:12;;;;;;;;;;;;;;;0.61;100.00;101039.84;5086749;28;20018;-62
2022/12/11 08:18:37;;;;;;;;;;;;;;;0.64;100.00;101044.88;5088802;28;19916;-62
2022/12/11 08:21:06;;;;;;;;;;;;;;;0.65;100.00;101043.94;5082607;28;19923;-63
2022/12/11 08:23:31;;;;;;;;;;;;;;;0.66;100.00;101040.38;5093813;28;19999;-62
2022/12/11 08:25:57;;;;;;;;;;;;;;;0.63;100.00;101048.44;5089914;28;20078;-61
2022/12/11 08:28:22;;;;;;;;;;;;;;;0.60;100.00;101038.19;5096673;28;19919;-61
2022/12/11 08:30:47;;;;;;;;;;;;;;;0.61;100.00;101038.06;5085132;28;19920;-61
2022/12/11 08:33:12;;;;;;;;;;;;;;;0.60;100.00;101046.84;5086896;28;19919;-62
2022/12/11 08:35:38;;;;;;;;;;;;;;;0.60;100.00;101048.63;5081520;28;20429;-62
2022/12/11 08:38:04;;;;;;;;;;;;;;;0.62;100.00;101049.38;5083803;28;19924;-62
2022/12/11 08:40:29;;;;;;;;;;;;;;;0.61;100.00;101042.47;5088802;28;19923;-62
2022/12/11 08:42:54;;;;;;;;;;;;;;;0.59;100.00;101044.34;5093063;28;19911;-61
2022/12/11 08:45:19;;;;;;;;;;;;;;;0.58;100.00;101040.91;5086780;28;19931;-62
2022/12/11 08:47:44;;;;;;;;;;;;;;;0.56;100.00;101041.91;5092351;28;19916;-62
2022/12/11 08:50:10;;;;;;;;;;;;;;;0.53;100.00;101042.94;5087487;28;20438;-63
2022/12/11 08:52:35;;;;;;;;;;;;;;;0.52;100.00;101041.28;5094764;28;19924;-62
2022/12/11 08:55:00;;;;;;;;;;;;;;;0.52;100.00;101037.81;5085100;28;19955;-62
2022/12/11 08:57:26;;;;;;;;;;;;;;;0.50;100.00;101037.09;5093516;28;20006;-63
2022/12/11 08:59:52;;;;;;;;;;;;;;;0.47;99.82;101027.69;5085539;28;19931;-62
2022/12/11 09:02:17;;;;;;;;;;;;;;;0.46;99.78;101026.00;5086823;28;19916;-61
2022/12/11 09:04:42;;;;;;;;;;;;;;;0.46;99.74;101026.00;5085328;28;19916;-62
2022/12/11 09:07:07;;;;;;;;;;;;;;;0.47;99.65;101022.47;5088768;28;19923;-62
2022/12/11 09:09:32;;;;;;;;;;;;;;;0.48;99.92;101024.13;5088287;28;19920;-61
2022/12/11 09:12:00;;;;;;;;;;;;;;;0.51;99.92;101033.53;5085122;28;19916;-61
2022/12/11 09:14:25;;;;;;;;;;;;;;;0.53;99.89;101023.81;5082358;28;20046;-62
2022/12/11 09:16:50;;;;;;;;;;;;;;;0.55;100.00;101021.94;5082062;28;20006;-63
2022/12/11 09:19:16;;;;;;;;;;;;;;;0.56;100.00;101026.22;5087229;28;19923;-63
2022/12/11 09:21:42;;;;;;;;;;;;;;;0.54;99.96;101022.88;5088025;28;19990;-63
2022/12/11 09:24:08;;;;;;;;;;;;;;;0.54;99.85;101023.72;5089015;28;20344;-63
2022/12/11 09:26:33;;;;;;;;;;;;;;;0.59;99.92;101031.28;5089087;28;20411;-63
2022/12/11 09:29:02;;;;;;;;;;;;;;;0.63;99.97;101031.91;5095788;28;19951;-63
2022/12/11 09:31:29;;;;;;;;;;;;;;;0.65;100.00;101030.03;5090759;28;20379;-62
2022/12/11 09:33:55;;;;;;;;;;;;;;;0.66;100.00;101029.94;5089511;28;19912;-63
2022/12/11 09:36:21;;;;;;;;;;;;;;;0.68;100.00;101029.81;5092568;28;19923;-63
2022/12/11 09:38:47;;;;;;;;;;;;;;;0.67;100.00;101034.22;5095325;28;19912;-64
2022/12/11 09:41:21;;;;;;;;;;;;;;;0.65;100.00;101036.09;5089022;28;19924;-62
2022/12/11 09:43:49;;;;;;;;;;;;;;;0.64;99.89;101028.34;5093388;28;19920;-63
2022/12/11 09:46:14;;;;;;;;;;;;;;;0.60;99.71;101028.56;5096627;28;20003;-63
2022/12/11 09:48:41;;;;;;;;;;;;;;;0.58;99.54;101030.44;5081392;28;20339;-64
2022/12/11 09:51:14;;;;;;;;;;;;;;;0.58;99.55;101027.84;5094074;28;19924;-63
2022/12/11 09:53:39;;;;;;;;;;;;;;;0.54;99.18;101021.09;5086276;28;20358;-63
2022/12/11 09:56:15;;;;;;;;;;;;;;;0.50;99.18;101022.25;5088116;28;20399;-62
2022/12/11 09:58:40;;;;;;;;;;;;;;;0.49;99.25;101022.34;5078966;28;19915;-62
2022/12/11 10:01:24;;;;;;;;;;;;;;;0.46;98.93;101026.00;5087935;28;19922;-63
2022/12/11 10:03:49;;;;;;;;;;;;;;;0.44;98.81;101019.22;5086387;28;19916;-63
2022/12/11 10:06:19;;;;;;;;;;;;;;;0.44;99.03;101014.81;5088890;28;19923;-63
2022/12/11 10:09:03;;;;;;;;;;;;;;;0.45;99.05;101020.88;5085831;28;19916;-62
2022/12/11 10:11:47;;;;;;;;;;;;;;;0.47;99.21;101017.22;5086991;28;20346;-63
2022/12/11 10:14:12;;;;;;;;;;;;;;;0.48;99.13;101020.69;5092734;28;20007;-63
2022/12/11 10:16:45;;;;;;;;;;;;;;;0.49;99.18;101014.53;5087684;28;20054;-63
2022/12/11 10:19:17;;;;;;;;;;;;;;;0.55;99.29;101016.72;5087034;28;19928;-63
2022/12/11 10:21:42;;;;;;;;;;;;;;;0.57;99.54;101010.44;5098289;28;19916;-63
2022/12/11 10:24:19;;;;;;;;;;;;;;;0.63;99.70;101008.38;5098721;28;20063;-63
2022/12/11 10:26:45;;;;;;;;;;;;;;;0.68;99.65;101009.75;5087516;28;19912;-63
2022/12/11 10:29:13;;;;;;;;;;;;;;;0.68;99.64;101009.75;5087884;28;19965;-63
2022/12/11 10:31:44;;;;;;;;;;;;;;;0.66;99.56;101014.25;5086095;28;19916;-63
2022/12/11 10:34:09;;;;;;;;;;;;;;;0.63;99.20;101011.00;5089889;28;19923;-65
2022/12/11 10:36:36;;;;;;;;;;;;;;;0.59;99.14;101008.59;5092280;28;19912;-63
2022/12/11 10:39:02;;;;;;;;;;;;;;;0.52;98.75;101004.69;5088498;28;20422;-65
2022/12/11 10:41:35;;;;;;;;;;;;;;;0.58;99.05;101009.53;5090059;28;19955;-63
2022/12/11 10:44:12;;;;;;;;;;;;;;;0.60;98.95;101009.44;5096196;28;20655;-63
2022/12/11 10:46:37;;;;;;;;;;;;;;;0.59;98.96;101005.16;5081849;28;19923;-63
2022/12/11 10:49:02;;;;;;;;;;;;;;;0.60;98.84;101005.03;5089269;28;19919;-64
2022/12/11 10:51:31;;;;;;;;;;;;;;;0.59;98.84;101006.00;5085820;28;20288;-63
2022/12/11 10:53:59;;;;;;;;;;;;;;;0.59;98.80;100999.94;5088517;28;20046;-62
2022/12/11 10:56:26;;;;;;;;;;;;;;;0.59;99.01;101000.75;5092571;28;19916;-63
2022/12/11 10:58:51;;;;;;;;;;;;;;;0.59;98.87;101002.53;5090753;28;19916;-63
2022/12/11 11:01:20;;;;;;;;;;;;;;;0.60;98.89;100999.81;5091619;28;19916;-63
2022/12/11 11:03:51;;;;;;;;;;;;;;;0.63;99.04;100996.16;5090576;28;19916;-63
2022/12/11 11:06:18;;;;;;;;;;;;;;;0.65;99.18;101002.13;5091428;28;19923;-63
2022/12/11 11:08:44;;;;;;;;;;;;;;;0.65;99.08;100989.06;5099531;28;20422;-64
2022/12/11 11:11:31;;;;;;;;;;;;;;;0.67;99.01;100995.00;5090540;28;19981;-66
2022/12/11 11:14:08;;;;;;;;;;;;;;;0.67;99.07;100991.56;5085837;28;19924;-62
2022/12/11 11:16:35;;;;;;;;;;;;;;;0.63;98.78;100985.72;5087555;28;19977;-63
2022/12/11 11:19:00;;;;;;;;;;;;;;;0.61;98.76;100982.38;5098051;28;19911;-63
2022/12/11 11:21:27;;;;;;;;;;;;;;;0.59;98.64;100990.31;5089315;28;19920;-64
2022/12/11 11:23:53;;;;;;;;;;;;;;;0.58;98.91;100982.56;5098896;28;19988;-62
2022/12/11 11:26:18;;;;;;;;;;;;;;;0.54;98.47;100992.38;5091361;28;19916;-63
2022/12/11 11:28:49;;;;;;;;;;;;;;;0.51;98.27;100989.97;5082951;28;19954;-64
2022/12/11 11:31:15;;;;;;;;;;;;;;;0.50;98.28;100990.06;5079589;28;20302;-62
2022/12/11 11:34:04;;;;;;;;;;;;;;;0.47;98.19;100992.88;5092123;28;19946;-63
2022/12/11 11:36:32;;;;;;;;;;;;;;;0.47;98.45;100985.88;5080821;28;19921;-63
2022/12/11 11:38:59;;;;;;;;;;;;;;;0.50;98.44;100985.69;5089022;28;20019;-62
2022/12/11 11:41:42;;;;;;;;;;;;;;;0.54;98.62;100983.69;5092684;28;19912;-63
2022/12/11 11:44:10;;;;;;;;;;;;;;;0.56;98.54;100984.44;5094500;28;20547;-63
2022/12/11 11:46:43;;;;;;;;;;;;;;;0.57;98.71;100984.31;5089419;28;19924;-63
2022/12/11 11:49:11;;;;;;;;;;;;;;;0.59;98.61;100979.03;5094688;28;19912;-63
2022/12/11 11:51:48;;;;;;;;;;;;;;;0.60;98.50;100978.06;5087590;28;19951;-62
2022/12/11 11:54:20;;;;;;;;;;;;;;;0.63;98.69;100972.66;5084211;28;19959;-63
2022/12/11 11:56:45;;;;;;;;;;;;;;;0.66;98.63;100976.81;5090024;28;20283;-63
2022/12/11 11:59:13;;;;;;;;;;;;;;;0.67;98.56;100970.66;5098619;28;19920;-63
2022/12/11 12:01:40;;;;;;;;;;;;;;;0.60;98.35;100965.84;5088440;28;19927;-66
2022/12/11 12:04:05;;;;;;;;;;;;;;;0.65;98.11;100973.38;5081684;28;19919;-63
2022/12/11 12:06:33;;;;;;;;;;;;;;;0.66;97.96;100969.81;5090053;28;19958;-63
2022/12/11 12:09:11;;;;;;;;;;;;;;;0.69;98.15;100966.16;5085291;28;20448;-64
2022/12/11 12:11:57;;;;;;;;;;;;;;;0.71;98.27;100962.50;5087702;28;20044;-63
2022/12/11 12:14:29;;;;;;;;;;;;;;;0.75;98.11;100969.19;5045688;28;19995;-63
2022/12/11 12:17:10;;;;;;;;;;;;;;;0.78;97.96;100963.75;5087065;28;20307;-63
2022/12/11 12:19:54;;;;;;;;;;;;;;;0.80;97.86;100954.03;5081807;28;19922;-63
2022/12/11 12:22:22;;;;;;;;;;;;;;;0.83;97.94;100958.19;5088933;28;19970;-63
2022/12/11 12:24:47;;;;;;;;;;;;;;;0.90;98.08;100955.06;5090857;28;20009;-65
2022/12/11 12:27:25;;;;;;;;;;;;;;;0.94;98.01;100950.47;5087630;28;19959;-62
2022/12/11 12:30:01;;;;;;;;;;;;;;;0.96;98.07;100940.75;5086889;28;20292;-63
2022/12/11 12:32:26;;;;;;;;;;;;;;;0.98;97.68;100944.09;5087193;28;19916;-64
2022/12/11 12:34:54;;;;;;;;;;;;;;;1.01;97.52;100938.63;5093190;28;19911;-64
2022/12/11 12:37:31;;;;;;;;;;;;;;;1.02;97.31;100939.47;5087484;28;20301;-64
2022/12/11 12:39:59;;;;;;;;;;;;;;;0.98;97.19;100935.41;5087505;28;19939;-63
2022/12/11 12:42:28;;;;;;;;;;;;;;;0.96;96.80;100948.59;5090992;28;19912;-63
2022/12/11 12:45:13;;;;;;;;;;;;;;;0.91;96.57;100940.22;5092168;28;19919;-63
2022/12/11 12:47:39;;;;;;;;;;;;;;;0.94;96.38;100937.41;5080955;28;19916;-63
2022/12/11 12:50:10;;;;;;;;;;;;;;;0.99;96.49;100944.91;5086536;28;20089;-63
2022/12/11 12:52:37;;;;;;;;;;;;;;;1.02;96.70;100945.53;5093755;28;20457;-64